Saguaro Natl Park, Arizona
Current Conditions -  °F | °C
As of 12:58 AM on Monday 24 Nov 2014 (Local Time) from KDMA Reporting Station
Clear Clear  
Wind Chill: 50°   Ceiling: Unl
Heat Index: 50°   Visibility: 10mi
Dew Point: -3°   Wind: 1mph
Humidity: 11%   Direction: 280°W
Pressure: 30.14"   Gusts: NA
Location:  32.2°N, 110.63°W
Report Text: KDMA 240758Z AUTO 28001KT 10SM CLR 10/M19 A3014 RMK AO2 SLP187 T01011195 $
Loading
Personal Weather Stations






























Interactive Weather Map New forecast layout! Learn more

10-Day Weather Forecast

Advertisements
Track Severe Weather on mobile